createdAt,value
2023-02-11T00:02:20.746Z,1045.00
2023-02-11T00:07:19.057Z,1013.00
2023-02-11T00:12:18.349Z,980.00
2023-02-11T00:17:16.674Z,377.00
2023-02-11T00:22:15.884Z,542.00
2023-02-11T00:27:15.122Z,0.00
2023-02-11T00:32:14.240Z,900.00
2023-02-11T00:37:13.545Z,912.00
2023-02-11T00:42:12.848Z,900.00
2023-02-11T00:47:12.169Z,877.00
2023-02-11T00:52:11.481Z,869.00
2023-02-11T00:57:10.816Z,858.00
2023-02-11T01:02:09.942Z,843.00
2023-02-11T01:07:10.272Z,840.00
2023-02-11T01:12:08.629Z,834.00
2023-02-11T01:17:08.736Z,827.00
2023-02-11T01:22:07.119Z,820.00
2023-02-11T01:27:07.254Z,796.00
2023-02-11T01:32:06.639Z,795.00
2023-02-11T01:37:05.740Z,787.00
2023-02-11T01:42:04.056Z,774.00
2023-02-11T01:47:04.390Z,773.00
2023-02-11T01:52:03.765Z,765.00
2023-02-11T01:57:02.893Z,755.00
2023-02-11T02:02:02.164Z,746.00
2023-02-11T02:07:01.302Z,749.00
2023-02-11T02:12:01.649Z,742.00
2023-02-11T02:16:58.947Z,726.00
2023-02-11T02:21:58.267Z,728.00
2023-02-11T02:26:57.572Z,737.00
2023-02-11T02:31:57.911Z,713.00
2023-02-11T02:36:57.018Z,721.00
2023-02-11T02:41:56.331Z,720.00
2023-02-11T02:46:55.673Z,716.00
2023-02-11T02:51:53.968Z,711.00
2023-02-11T02:56:55.094Z,709.00
2023-02-11T03:01:52.464Z,703.00
2023-02-11T03:06:51.616Z,709.00
2023-02-11T03:11:51.760Z,717.00
2023-02-11T03:16:50.087Z,701.00
2023-02-11T03:21:50.428Z,690.00
2023-02-11T03:26:48.731Z,703.00
2023-02-11T03:31:50.222Z,694.00
2023-02-11T03:36:47.383Z,679.00
2023-02-11T03:41:47.701Z,668.00
2023-02-11T03:46:46.021Z,673.00
2023-02-11T03:51:46.348Z,668.00
2023-02-11T03:56:45.667Z,662.00
2023-02-11T04:01:42.833Z,651.00
2023-02-11T04:06:42.978Z,663.00
2023-02-11T04:11:43.146Z,665.00
2023-02-11T04:16:43.365Z,663.00
2023-02-11T04:21:40.492Z,658.00
2023-02-11T04:26:40.677Z,660.00
2023-02-11T04:31:39.836Z,658.00
2023-02-11T04:36:37.961Z,658.00
2023-02-11T04:41:37.099Z,648.00
2023-02-11T04:46:37.256Z,647.00
2023-02-11T04:51:35.388Z,656.00
2023-02-11T04:56:36.525Z,654.00
2023-02-11T05:01:34.987Z,647.00
2023-02-11T05:06:34.166Z,654.00
2023-02-11T05:11:33.311Z,653.00
2023-02-11T05:16:31.519Z,649.00
2023-02-11T05:21:30.690Z,658.00
2023-02-11T05:26:29.819Z,650.00
2023-02-11T05:31:30.051Z,650.00
2023-02-11T05:36:31.137Z,647.00
2023-02-11T05:41:29.525Z,653.00
2023-02-11T05:46:27.909Z,649.00
2023-02-11T05:51:26.030Z,636.00
2023-02-11T05:56:26.351Z,635.00
2023-02-11T06:01:24.477Z,630.00
2023-02-11T06:06:25.639Z,631.00
2023-02-11T06:11:22.780Z,635.00
2023-02-11T06:16:23.018Z,633.00
2023-02-11T06:21:21.192Z,632.00
2023-02-11T06:26:20.307Z,642.00
2023-02-11T06:31:20.753Z,632.00
2023-02-11T06:36:20.940Z,631.00
2023-02-11T06:41:18.279Z,627.00
2023-02-11T06:46:17.610Z,634.00
2023-02-11T06:51:18.583Z,632.00
2023-02-11T06:56:16.938Z,632.00
2023-02-11T07:01:15.042Z,627.00
2023-02-11T07:06:14.365Z,625.00
2023-02-11T07:11:13.719Z,631.00
2023-02-11T07:16:12.877Z,633.00
2023-02-11T07:21:12.042Z,635.00
2023-02-11T07:26:12.173Z,636.00
2023-02-11T07:31:10.602Z,624.00
2023-02-11T07:36:10.788Z,629.00
2023-02-11T07:41:08.889Z,629.00
2023-02-11T07:46:08.226Z,625.00
2023-02-11T07:51:07.551Z,624.00
2023-02-11T07:56:06.868Z,629.00
2023-02-11T08:01:07.284Z,638.00
2023-02-11T08:06:05.415Z,641.00
2023-02-11T08:11:04.744Z,652.00
2023-02-11T08:16:04.092Z,645.00
2023-02-11T08:21:03.234Z,641.00
2023-02-11T08:26:02.535Z,633.00
2023-02-11T08:31:01.857Z,632.00
2023-02-11T08:35:59.946Z,612.00
2023-02-11T08:41:01.226Z,592.00
2023-02-11T08:46:01.915Z,591.00
2023-02-11T08:50:59.698Z,630.00
2023-02-11T08:55:57.988Z,626.00
2023-02-11T09:00:57.321Z,632.00
2023-02-11T09:05:56.605Z,641.00
2023-02-11T09:10:55.897Z,591.00
2023-02-11T09:15:56.177Z,624.00
2023-02-11T09:20:55.509Z,630.00
2023-02-11T09:25:55.635Z,628.00
2023-02-11T09:30:54.339Z,660.00
2023-02-11T09:35:52.139Z,622.00
2023-02-11T09:40:51.542Z,620.00
2023-02-11T09:45:51.750Z,637.00
2023-02-11T09:50:51.104Z,618.00
2023-02-11T09:55:49.012Z,628.00
2023-02-11T10:00:49.541Z,613.00
2023-02-11T10:05:48.620Z,597.00
2023-02-11T10:10:46.918Z,626.00
2023-02-11T10:15:47.301Z,617.00
2023-02-11T10:20:46.465Z,609.00
2023-02-11T10:25:46.617Z,621.00
2023-02-11T10:30:43.999Z,636.00
2023-02-11T10:35:44.161Z,612.00
2023-02-11T10:40:42.492Z,612.00
2023-02-11T10:45:42.629Z,606.00
2023-02-11T10:50:41.121Z,640.00
2023-02-11T10:55:40.250Z,591.00
2023-02-11T11:00:39.595Z,649.00
2023-02-11T11:05:38.732Z,611.00
2023-02-11T11:10:38.179Z,606.00
2023-02-11T11:15:38.347Z,635.00
2023-02-11T11:20:38.505Z,637.00
2023-02-11T11:25:36.694Z,594.00
2023-02-11T11:30:35.012Z,593.00
2023-02-11T11:35:34.313Z,662.00
2023-02-11T11:40:33.878Z,738.00
2023-02-11T11:45:32.788Z,772.00
2023-02-11T11:50:32.103Z,778.00
2023-02-11T11:55:31.451Z,781.00
2023-02-11T12:00:30.832Z,832.00
2023-02-11T12:05:30.740Z,789.00
2023-02-11T12:10:29.021Z,860.00
2023-02-11T12:15:27.338Z,826.00
2023-02-11T12:20:28.760Z,816.00
2023-02-11T12:25:27.858Z,869.00
2023-02-11T12:30:26.418Z,861.00
2023-02-11T12:35:26.596Z,835.00
2023-02-11T12:40:24.557Z,791.00
2023-02-11T12:45:24.736Z,791.00
2023-02-11T12:50:24.112Z,756.00
2023-02-11T12:55:22.031Z,759.00
2023-02-11T13:00:21.610Z,730.00
2023-02-11T13:05:20.503Z,718.00
2023-02-11T13:10:22.172Z,693.00
2023-02-11T13:15:21.222Z,699.00
2023-02-11T13:20:19.528Z,663.00
2023-02-11T13:25:17.559Z,655.00
2023-02-11T13:30:18.048Z,680.00
2023-02-11T13:35:16.079Z,720.00
2023-02-11T13:40:16.274Z,685.00
2023-02-11T13:45:16.425Z,717.00
2023-02-11T13:50:14.652Z,750.00
2023-02-11T13:55:12.985Z,736.00
2023-02-11T14:00:12.269Z,773.00
2023-02-11T14:05:12.320Z,785.00
2023-02-11T14:10:10.518Z,757.00
2023-02-11T14:15:11.185Z,779.00
2023-02-11T14:20:08.961Z,816.00
2023-02-11T14:25:08.463Z,606.00
2023-02-11T14:30:09.592Z,628.00
2023-02-11T14:35:06.931Z,633.00
2023-02-11T14:40:05.840Z,649.00
2023-02-11T14:45:05.023Z,598.00
2023-02-11T14:50:04.595Z,604.00
2023-02-11T14:55:04.536Z,652.00
2023-02-11T15:00:03.799Z,547.00
2023-02-11T15:05:02.311Z,590.00
2023-02-11T15:10:02.473Z,582.00
2023-02-11T15:15:00.660Z,601.00
2023-02-11T15:20:00.780Z,602.00
2023-02-11T15:24:59.139Z,612.00
2023-02-11T15:29:57.978Z,579.00
2023-02-11T15:34:59.306Z,600.00
2023-02-11T15:39:56.500Z,658.00
2023-02-11T15:44:56.865Z,575.00
2023-02-11T15:49:55.019Z,568.00
2023-02-11T15:54:53.413Z,585.00
2023-02-11T15:59:54.632Z,598.00
2023-02-11T16:04:53.960Z,592.00
2023-02-11T16:09:52.182Z,597.00
2023-02-11T16:14:51.461Z,690.00
2023-02-11T16:19:51.714Z,638.00
2023-02-11T16:24:50.870Z,624.00
2023-02-11T16:29:49.004Z,634.00
2023-02-11T16:34:48.293Z,638.00
2023-02-11T16:39:49.778Z,656.00
2023-02-11T16:44:47.098Z,729.00
2023-02-11T16:49:47.344Z,730.00
2023-02-11T16:54:46.296Z,722.00
2023-02-11T16:59:45.629Z,725.00
2023-02-11T17:04:44.969Z,717.00
2023-02-11T17:09:43.184Z,715.00
2023-02-11T17:14:44.432Z,708.00
2023-02-11T17:19:41.624Z,701.00
2023-02-11T17:24:41.796Z,706.00
2023-02-11T17:29:40.927Z,698.00
2023-02-11T17:34:39.385Z,687.00
2023-02-11T17:39:39.449Z,684.00
2023-02-11T17:44:38.658Z,686.00
2023-02-11T17:49:36.849Z,683.00
2023-02-11T17:54:35.705Z,684.00
2023-02-11T17:59:37.179Z,683.00
2023-02-11T18:04:34.587Z,682.00
2023-02-11T18:09:34.493Z,677.00
2023-02-11T18:14:33.030Z,675.00
2023-02-11T18:19:33.200Z,674.00
2023-02-11T18:24:31.365Z,670.00
2023-02-11T18:29:30.219Z,673.00
2023-02-11T18:34:29.415Z,675.00
2023-02-11T18:39:29.911Z,665.00
2023-02-11T18:44:29.084Z,673.00
2023-02-11T18:49:27.252Z,676.00
2023-02-11T18:54:27.126Z,667.00
2023-02-11T18:59:26.663Z,668.00
2023-02-11T19:04:25.956Z,666.00
2023-02-11T19:09:25.017Z,662.00
2023-02-11T19:14:24.290Z,656.00
2023-02-11T19:19:23.496Z,662.00
2023-02-11T19:24:21.662Z,654.00
2023-02-11T19:29:20.894Z,652.00
2023-02-11T19:34:19.746Z,654.00
2023-02-11T19:39:20.274Z,651.00
2023-02-11T19:44:18.143Z,648.00
2023-02-11T19:49:17.804Z,654.00
2023-02-11T19:54:16.828Z,651.00
2023-02-11T19:59:16.027Z,664.00
2023-02-11T20:04:15.989Z,654.00
2023-02-11T20:09:14.494Z,651.00
2023-02-11T20:14:13.349Z,653.00
2023-02-11T20:19:12.842Z,647.00
2023-02-11T20:24:13.088Z,655.00
2023-02-11T20:29:11.292Z,647.00
2023-02-11T20:34:10.468Z,647.00
2023-02-11T20:39:11.673Z,653.00
2023-02-11T20:44:12.025Z,650.00
2023-02-11T20:49:09.795Z,650.00
2023-02-11T20:54:07.456Z,659.00
2023-02-11T20:59:08.299Z,649.00
2023-02-11T21:04:05.874Z,649.00
2023-02-11T21:09:05.089Z,644.00
2023-02-11T21:14:04.249Z,649.00
2023-02-11T21:19:05.046Z,649.00
2023-02-11T21:24:02.672Z,657.00
2023-02-11T21:29:01.912Z,654.00
2023-02-11T21:34:02.210Z,652.00
2023-02-11T21:39:01.253Z,647.00
2023-02-11T21:44:00.567Z,649.00
2023-02-11T21:48:59.851Z,650.00
2023-02-11T21:53:58.760Z,663.00
2023-02-11T21:58:59.519Z,663.00
2023-02-11T22:03:56.616Z,658.00
2023-02-11T22:08:54.653Z,656.00
2023-02-11T22:13:56.967Z,653.00
2023-02-11T22:18:55.858Z,660.00
2023-02-11T22:23:54.394Z,656.00
2023-02-11T22:28:53.784Z,658.00
2023-02-11T22:33:52.877Z,659.00
2023-02-11T22:38:51.192Z,662.00
2023-02-11T22:43:50.506Z,658.00
2023-02-11T22:48:50.813Z,661.00
2023-02-11T22:53:50.125Z,665.00
2023-02-11T22:58:49.460Z,657.00
2023-02-11T23:03:47.791Z,664.00
2023-02-11T23:08:47.119Z,666.00
2023-02-11T23:13:46.243Z,672.00
2023-02-11T23:18:45.568Z,671.00
2023-02-11T23:23:43.873Z,666.00
2023-02-11T23:28:44.222Z,674.00
2023-02-11T23:33:42.329Z,665.00
2023-02-11T23:38:42.646Z,669.00
2023-02-11T23:43:42.971Z,669.00
2023-02-11T23:48:41.292Z,669.00
2023-02-11T23:53:41.451Z,667.00
2023-02-11T23:58:40.576Z,680.00
